Meteo Giornale » Osservazioni meteo Svizzera » Dubendorf

ore: 17:50 - Osservazioni Meteo Dubendorf
Lat. 47° 24' N Lon. 8° 39' E Alt. 448 metri s.l.m.

sereno Europe/Zurich

29 °C

Sereno

Temp. 24 Ore

15 °C

29 °C

Nord

1.8 Km/h

Dew point 16 °C

Umidità 45 %

Visibilità  10 Km

Il sole sorge alle ore 05:51

Il sole tramonta alle ore 21:12

Data e Ora Cielo e Fenomeni T °C DP °C Um. % Pres. hPa Vis. km Vento km/h
Oggi h: 17:50 sereno Sereno 29 16 45 1013 10 N 1.8
Oggi h: 17:20 sereno Sereno 29 13 37 1014 10 N/NO 7.4
Oggi h: 16:50 sereno Sereno 29 13 37 1014 10 N 7.4
Oggi h: 16:20 sereno Sereno 29 14 39 1014 10 O/NO 9.3
Oggi h: 15:50 sereno Sereno 29 12 35 1014 10 N 3.7
Oggi h: 15:20 sereno Sereno 29 14 39 1014 10 N 3.7
Oggi h: 14:50 sereno Sereno 28 14 42 1015 10 N 3.7
Oggi h: 14:20 sereno Sereno 28 14 42 1015 10 N 3.7
Oggi h: 13:20 sereno Sereno 27 16 50 1016 10 N 0
Oggi h: 12:50 sereno Sereno 26 16 54 1016 10 N 0
Oggi h: 11:50 sereno Sereno 24 16 60 1017 10 N 3.7
Oggi h: 11:20 sereno Sereno 24 16 60 1017 10 N 0
Oggi h: 10:50 sereno Sereno 24 15 57 1018 10 N 0
Oggi h: 10:20 sereno Sereno 23 17 68 1018 10 N 0
Oggi h: 09:50 sereno Sereno 21 16 73 1018 10 N 0
Oggi h: 09:20 sereno Sereno 21 16 73 1018 10 N 0
Oggi h: 08:50 sereno Sereno 20 15 72 1018 10 N 0
Oggi h: 08:20 sereno Sereno 19 15 77 1018 10 N 0
Oggi h: 07:50 sereno Sereno 18 15 82 1018 10 N 0
Oggi h: 07:20 sereno Sereno 17 15 88 1018 10 N 0
Oggi h: 06:50 sereno Sereno 15 14 93 1018 10 N 0
Oggi h: 06:20 sereno Sereno 15 13 87 1018 10 N 0
Oggi h: 05:50 poco_nuvoloso Poco Nuvoloso 15 14 93 1018 10 N 0
Oggi h: 05:20 sereno Sereno 15 14 93 1018 10 N 0
Oggi h: 04:50 sereno Sereno 15 14 93 1018 10 N 0
Oggi h: 04:20 sereno Sereno 16 14 87 1018 10 N 0
Oggi h: 03:50 sereno Sereno 16 14 87 1018 10 N 0
Oggi h: 03:20 sereno Sereno 17 15 88 1018 10 N 0
Oggi h: 02:50 sereno Sereno 17 15 88 1019 10 N 0
Oggi h: 02:20 sereno Sereno 18 15 82 1019 10 N 0
Oggi h: 01:50 sereno Sereno 18 14 77 1019 10 N 0
Oggi h: 01:20 poco_nuvoloso Poco Nuvoloso 19 15 77 1019 10 N 1.8
Oggi h: 00:50 nuvoloso Nuvoloso 18 15 82 1019 10 N 3.7
Oggi h: 00:20 sereno Sereno 20 15 72 1019 10 N 0
Ieri h: 23:50 sereno Sereno 20 14 68 1019 10 N 0
Ieri h: 23:20 poco_nuvoloso Poco Nuvoloso 21 14 64 1019 10 N 5.5
Ieri h: 22:50 poco_nuvoloso Poco Nuvoloso 21 14 64 1019 10 N 1.8
Ieri h: 22:20 poco_nuvoloso Poco Nuvoloso 21 14 64 1019 10 NO 7.4
Ieri h: 21:50 nebbia Nebbia 23 13 53 1018 1 N 5.5
Ieri h: 21:20 sereno Sereno 24 12 47 1018 10 O 7.4
Ieri h: 20:50 sereno Sereno 24 13 50 1018 10 O/NO 9.3
Ieri h: 20:20 sereno Sereno 25 15 53 1018 10 O/NO 9.3
Ieri h: 19:50 sereno Sereno 26 14 47 1018 10 O/NO 7.4
Ieri h: 19:20 sereno Sereno 27 12 39 1018 10 NO 11.1
Ieri h: 18:50 sereno Sereno 27 12 39 1018 10 NO 13